sensor_id;sensor_type;location;lat;lon;timestamp;P1;durP1;ratioP1;P2;durP2;ratioP2
49123;SDS011;48506;48.202;16.274;2023-11-22T00:01:41;14.38;;;8.50;;
49123;SDS011;48506;48.202;16.274;2023-11-22T00:04:12;11.70;;;8.57;;
49123;SDS011;48506;48.202;16.274;2023-11-22T00:06:39;11.40;;;8.32;;
49123;SDS011;48506;48.202;16.274;2023-11-22T00:09:05;14.02;;;10.20;;
49123;SDS011;48506;48.202;16.274;2023-11-22T00:11:32;17.25;;;11.15;;
49123;SDS011;48506;48.202;16.274;2023-11-22T00:13:59;15.60;;;10.82;;
49123;SDS011;48506;48.202;16.274;2023-11-22T00:16:25;18.40;;;11.88;;
49123;SDS011;48506;48.202;16.274;2023-11-22T00:18:51;19.08;;;12.20;;
49123;SDS011;48506;48.202;16.274;2023-11-22T00:21:17;19.55;;;13.00;;
49123;SDS011;48506;48.202;16.274;2023-11-22T00:23:45;19.15;;;12.55;;
49123;SDS011;48506;48.202;16.274;2023-11-22T00:26:12;18.75;;;12.80;;
49123;SDS011;48506;48.202;16.274;2023-11-22T00:28:38;23.02;;;14.70;;
49123;SDS011;48506;48.202;16.274;2023-11-22T00:31:04;18.77;;;12.55;;
49123;SDS011;48506;48.202;16.274;2023-11-22T00:33:30;16.95;;;11.75;;
49123;SDS011;48506;48.202;16.274;2023-11-22T00:35:57;17.52;;;11.57;;
49123;SDS011;48506;48.202;16.274;2023-11-22T00:38:23;17.20;;;12.52;;
49123;SDS011;48506;48.202;16.274;2023-11-22T00:40:49;18.63;;;12.52;;
49123;SDS011;48506;48.202;16.274;2023-11-22T00:43:18;17.05;;;11.75;;
49123;SDS011;48506;48.202;16.274;2023-11-22T00:45:44;21.30;;;14.27;;
49123;SDS011;48506;48.202;16.274;2023-11-22T00:48:10;19.63;;;12.93;;
49123;SDS011;48506;48.202;16.274;2023-11-22T00:50:36;18.48;;;12.70;;
49123;SDS011;48506;48.202;16.274;2023-11-22T00:53:03;18.83;;;12.30;;
49123;SDS011;48506;48.202;16.274;2023-11-22T00:55:28;16.98;;;11.70;;
49123;SDS011;48506;48.202;16.274;2023-11-22T00:57:55;16.67;;;11.55;;
49123;SDS011;48506;48.202;16.274;2023-11-22T01:00:27;16.10;;;10.63;;
49123;SDS011;48506;48.202;16.274;2023-11-22T01:02:54;15.95;;;10.05;;
49123;SDS011;48506;48.202;16.274;2023-11-22T01:05:20;13.02;;;9.18;;
49123;SDS011;48506;48.202;16.274;2023-11-22T01:07:47;12.02;;;8.45;;
49123;SDS011;48506;48.202;16.274;2023-11-22T01:10:13;13.95;;;8.73;;
49123;SDS011;48506;48.202;16.274;2023-11-22T01:12:41;14.48;;;8.75;;
49123;SDS011;48506;48.202;16.274;2023-11-22T01:15:07;13.65;;;8.35;;
49123;SDS011;48506;48.202;16.274;2023-11-22T01:17:34;11.38;;;8.10;;
49123;SDS011;48506;48.202;16.274;2023-11-22T01:20:00;12.75;;;7.90;;
49123;SDS011;48506;48.202;16.274;2023-11-22T01:22:28;11.35;;;8.00;;
49123;SDS011;48506;48.202;16.274;2023-11-22T01:24:55;12.18;;;7.60;;
49123;SDS011;48506;48.202;16.274;2023-11-22T01:27:20;13.75;;;8.95;;
49123;SDS011;48506;48.202;16.274;2023-11-22T01:29:47;11.65;;;8.15;;
49123;SDS011;48506;48.202;16.274;2023-11-22T01:32:13;11.82;;;7.75;;
49123;SDS011;48506;48.202;16.274;2023-11-22T01:34:42;11.35;;;8.57;;
49123;SDS011;48506;48.202;16.274;2023-11-22T01:37:08;12.43;;;8.73;;
49123;SDS011;48506;48.202;16.274;2023-11-22T01:39:34;11.30;;;8.05;;
49123;SDS011;48506;48.202;16.274;2023-11-22T01:42:00;11.32;;;8.25;;
49123;SDS011;48506;48.202;16.274;2023-11-22T01:44:26;9.80;;;7.30;;
49123;SDS011;48506;48.202;16.274;2023-11-22T01:46:52;8.93;;;6.05;;
49123;SDS011;48506;48.202;16.274;2023-11-22T01:49:19;10.65;;;7.07;;
49123;SDS011;48506;48.202;16.274;2023-11-22T01:51:46;10.85;;;6.82;;
49123;SDS011;48506;48.202;16.274;2023-11-22T01:54:12;9.15;;;7.20;;
49123;SDS011;48506;48.202;16.274;2023-11-22T01:56:38;11.07;;;7.60;;
49123;SDS011;48506;48.202;16.274;2023-11-22T01:59:04;9.05;;;6.93;;
49123;SDS011;48506;48.202;16.274;2023-11-22T02:01:31;12.13;;;8.10;;
49123;SDS011;48506;48.202;16.274;2023-11-22T02:03:57;10.90;;;7.85;;
49123;SDS011;48506;48.202;16.274;2023-11-22T02:06:24;14.30;;;7.93;;
49123;SDS011;48506;48.202;16.274;2023-11-22T02:08:50;11.10;;;8.07;;
49123;SDS011;48506;48.202;16.274;2023-11-22T02:11:17;12.20;;;8.43;;
49123;SDS011;48506;48.202;16.274;2023-11-22T02:13:48;11.98;;;8.30;;
49123;SDS011;48506;48.202;16.274;2023-11-22T02:16:17;11.95;;;8.32;;
49123;SDS011;48506;48.202;16.274;2023-11-22T02:18:45;8.90;;;6.95;;
49123;SDS011;48506;48.202;16.274;2023-11-22T02:21:12;9.38;;;7.85;;
49123;SDS011;48506;48.202;16.274;2023-11-22T02:23:40;10.98;;;7.90;;
49123;SDS011;48506;48.202;16.274;2023-11-22T02:26:07;11.38;;;7.93;;
49123;SDS011;48506;48.202;16.274;2023-11-22T02:28:34;10.00;;;7.40;;
49123;SDS011;48506;48.202;16.274;2023-11-22T02:31:01;10.80;;;7.97;;
49123;SDS011;48506;48.202;16.274;2023-11-22T02:33:29;10.70;;;8.07;;
49123;SDS011;48506;48.202;16.274;2023-11-22T02:35:55;11.32;;;7.82;;
49123;SDS011;48506;48.202;16.274;2023-11-22T02:38:22;13.95;;;9.38;;
49123;SDS011;48506;48.202;16.274;2023-11-22T02:40:48;11.52;;;8.30;;
49123;SDS011;48506;48.202;16.274;2023-11-22T02:43:16;12.13;;;8.20;;
49123;SDS011;48506;48.202;16.274;2023-11-22T02:45:43;12.23;;;8.38;;
49123;SDS011;48506;48.202;16.274;2023-11-22T02:48:09;10.45;;;8.38;;
49123;SDS011;48506;48.202;16.274;2023-11-22T02:50:36;13.70;;;8.75;;
49123;SDS011;48506;48.202;16.274;2023-11-22T02:53:03;12.45;;;8.73;;
49123;SDS011;48506;48.202;16.274;2023-11-22T02:55:29;10.70;;;8.07;;
49123;SDS011;48506;48.202;16.274;2023-11-22T02:57:55;12.82;;;8.68;;
49123;SDS011;48506;48.202;16.274;2023-11-22T03:00:21;12.18;;;8.15;;
49123;SDS011;48506;48.202;16.274;2023-11-22T03:02:48;12.65;;;7.80;;
49123;SDS011;48506;48.202;16.274;2023-11-22T03:05:20;11.18;;;7.70;;
49123;SDS011;48506;48.202;16.274;2023-11-22T03:07:46;12.27;;;8.38;;
49123;SDS011;48506;48.202;16.274;2023-11-22T03:10:13;10.93;;;8.13;;
49123;SDS011;48506;48.202;16.274;2023-11-22T03:12:39;10.88;;;7.65;;
49123;SDS011;48506;48.202;16.274;2023-11-22T03:15:05;12.05;;;7.72;;
49123;SDS011;48506;48.202;16.274;2023-11-22T03:17:32;16.70;;;8.32;;
49123;SDS011;48506;48.202;16.274;2023-11-22T03:19:58;11.35;;;8.20;;
49123;SDS011;48506;48.202;16.274;2023-11-22T03:22:26;10.63;;;7.15;;
49123;SDS011;48506;48.202;16.274;2023-11-22T03:24:56;10.00;;;7.28;;
49123;SDS011;48506;48.202;16.274;2023-11-22T03:27:23;10.93;;;8.07;;
49123;SDS011;48506;48.202;16.274;2023-11-22T03:29:51;10.43;;;7.20;;
49123;SDS011;48506;48.202;16.274;2023-11-22T03:32:17;10.50;;;7.32;;
49123;SDS011;48506;48.202;16.274;2023-11-22T03:34:43;10.75;;;6.95;;
49123;SDS011;48506;48.202;16.274;2023-11-22T03:37:09;15.32;;;8.30;;
49123;SDS011;48506;48.202;16.274;2023-11-22T03:39:36;10.05;;;7.03;;
49123;SDS011;48506;48.202;16.274;2023-11-22T03:42:02;10.15;;;7.57;;
49123;SDS011;48506;48.202;16.274;2023-11-22T03:44:28;11.23;;;8.00;;
49123;SDS011;48506;48.202;16.274;2023-11-22T03:46:55;11.93;;;7.90;;
49123;SDS011;48506;48.202;16.274;2023-11-22T03:49:21;9.32;;;7.10;;
49123;SDS011;48506;48.202;16.274;2023-11-22T03:51:47;10.20;;;7.40;;
49123;SDS011;48506;48.202;16.274;2023-11-22T03:54:13;10.13;;;7.65;;
49123;SDS011;48506;48.202;16.274;2023-11-22T03:56:39;11.05;;;7.43;;
49123;SDS011;48506;48.202;16.274;2023-11-22T03:59:05;9.25;;;6.90;;
49123;SDS011;48506;48.202;16.274;2023-11-22T04:01:31;9.05;;;6.50;;
49123;SDS011;48506;48.202;16.274;2023-11-22T04:03:57;9.30;;;7.07;;
49123;SDS011;48506;48.202;16.274;2023-11-22T04:06:23;8.93;;;7.28;;
49123;SDS011;48506;48.202;16.274;2023-11-22T04:08:49;10.25;;;6.82;;
49123;SDS011;48506;48.202;16.274;2023-11-22T04:11:16;9.40;;;6.10;;
49123;SDS011;48506;48.202;16.274;2023-11-22T04:13:43;9.65;;;6.63;;
49123;SDS011;48506;48.202;16.274;2023-11-22T04:16:09;10.85;;;7.53;;
49123;SDS011;48506;48.202;16.274;2023-11-22T04:18:38;9.63;;;6.82;;
49123;SDS011;48506;48.202;16.274;2023-11-22T04:21:06;8.02;;;5.95;;
49123;SDS011;48506;48.202;16.274;2023-11-22T04:23:32;8.88;;;6.45;;
49123;SDS011;48506;48.202;16.274;2023-11-22T04:25:59;7.88;;;5.95;;
49123;SDS011;48506;48.202;16.274;2023-11-22T04:28:29;11.77;;;6.50;;
49123;SDS011;48506;48.202;16.274;2023-11-22T04:30:55;11.93;;;7.53;;
49123;SDS011;48506;48.202;16.274;2023-11-22T04:33:22;11.73;;;7.75;;
49123;SDS011;48506;48.202;16.274;2023-11-22T04:35:49;11.07;;;7.65;;
49123;SDS011;48506;48.202;16.274;2023-11-22T04:38:16;10.68;;;7.55;;
49123;SDS011;48506;48.202;16.274;2023-11-22T04:40:43;13.35;;;7.85;;
49123;SDS011;48506;48.202;16.274;2023-11-22T04:43:10;10.85;;;8.02;;
49123;SDS011;48506;48.202;16.274;2023-11-22T04:45:36;11.57;;;7.50;;
49123;SDS011;48506;48.202;16.274;2023-11-22T04:48:03;14.43;;;8.95;;
49123;SDS011;48506;48.202;16.274;2023-11-22T04:50:30;13.07;;;8.82;;
49123;SDS011;48506;48.202;16.274;2023-11-22T04:52:56;13.15;;;9.00;;
49123;SDS011;48506;48.202;16.274;2023-11-22T04:55:22;12.25;;;8.43;;
49123;SDS011;48506;48.202;16.274;2023-11-22T04:57:49;11.57;;;9.05;;
49123;SDS011;48506;48.202;16.274;2023-11-22T05:00:15;14.77;;;9.88;;
49123;SDS011;48506;48.202;16.274;2023-11-22T05:02:43;12.55;;;9.10;;
49123;SDS011;48506;48.202;16.274;2023-11-22T05:05:09;12.88;;;9.10;;
49123;SDS011;48506;48.202;16.274;2023-11-22T05:07:38;15.82;;;9.00;;
49123;SDS011;48506;48.202;16.274;2023-11-22T05:10:05;18.67;;;9.52;;
49123;SDS011;48506;48.202;16.274;2023-11-22T05:12:34;11.02;;;7.85;;
49123;SDS011;48506;48.202;16.274;2023-11-22T05:15:00;13.77;;;9.25;;
49123;SDS011;48506;48.202;16.274;2023-11-22T05:17:27;13.27;;;9.48;;
49123;SDS011;48506;48.202;16.274;2023-11-22T05:19:53;16.02;;;9.55;;
49123;SDS011;48506;48.202;16.274;2023-11-22T05:22:20;12.35;;;8.45;;
49123;SDS011;48506;48.202;16.274;2023-11-22T05:24:46;14.13;;;9.40;;
49123;SDS011;48506;48.202;16.274;2023-11-22T05:27:13;14.18;;;9.07;;
49123;SDS011;48506;48.202;16.274;2023-11-22T05:29:39;15.40;;;9.38;;
49123;SDS011;48506;48.202;16.274;2023-11-22T05:32:05;14.63;;;9.77;;
49123;SDS011;48506;48.202;16.274;2023-11-22T05:34:31;19.17;;;11.18;;
49123;SDS011;48506;48.202;16.274;2023-11-22T05:36:58;15.55;;;9.68;;
49123;SDS011;48506;48.202;16.274;2023-11-22T05:39:24;19.48;;;10.32;;
49123;SDS011;48506;48.202;16.274;2023-11-22T05:41:52;16.80;;;10.27;;
49123;SDS011;48506;48.202;16.274;2023-11-22T05:44:19;16.75;;;10.20;;
49123;SDS011;48506;48.202;16.274;2023-11-22T05:46:44;14.10;;;9.50;;
49123;SDS011;48506;48.202;16.274;2023-11-22T05:49:10;15.75;;;10.32;;
49123;SDS011;48506;48.202;16.274;2023-11-22T05:51:37;15.50;;;9.30;;
49123;SDS011;48506;48.202;16.274;2023-11-22T05:54:03;14.13;;;9.50;;
49123;SDS011;48506;48.202;16.274;2023-11-22T05:56:30;15.13;;;9.98;;
49123;SDS011;48506;48.202;16.274;2023-11-22T05:58:57;14.35;;;9.65;;
49123;SDS011;48506;48.202;16.274;2023-11-22T06:01:25;15.60;;;10.32;;
49123;SDS011;48506;48.202;16.274;2023-11-22T06:03:54;14.50;;;10.05;;
49123;SDS011;48506;48.202;16.274;2023-11-22T06:06:20;13.85;;;9.10;;
49123;SDS011;48506;48.202;16.274;2023-11-22T06:08:47;12.35;;;8.90;;
49123;SDS011;48506;48.202;16.274;2023-11-22T06:11:14;13.40;;;9.18;;
49123;SDS011;48506;48.202;16.274;2023-11-22T06:13:41;13.93;;;9.73;;
49123;SDS011;48506;48.202;16.274;2023-11-22T06:16:08;14.02;;;8.93;;
49123;SDS011;48506;48.202;16.274;2023-11-22T06:18:34;13.52;;;9.32;;
49123;SDS011;48506;48.202;16.274;2023-11-22T06:21:08;13.57;;;9.40;;
49123;SDS011;48506;48.202;16.274;2023-11-22T06:23:35;16.55;;;9.48;;
49123;SDS011;48506;48.202;16.274;2023-11-22T06:26:01;13.70;;;9.73;;
49123;SDS011;48506;48.202;16.274;2023-11-22T06:28:27;17.95;;;10.23;;
49123;SDS011;48506;48.202;16.274;2023-11-22T06:30:54;14.40;;;9.48;;
49123;SDS011;48506;48.202;16.274;2023-11-22T06:33:21;12.95;;;9.45;;
49123;SDS011;48506;48.202;16.274;2023-11-22T06:35:46;13.75;;;9.20;;
49123;SDS011;48506;48.202;16.274;2023-11-22T06:38:12;14.18;;;9.55;;
49123;SDS011;48506;48.202;16.274;2023-11-22T06:40:39;11.02;;;8.18;;
49123;SDS011;48506;48.202;16.274;2023-11-22T06:43:05;11.30;;;8.20;;
49123;SDS011;48506;48.202;16.274;2023-11-22T06:45:32;12.60;;;8.63;;
49123;SDS011;48506;48.202;16.274;2023-11-22T06:47:58;14.68;;;9.43;;
49123;SDS011;48506;48.202;16.274;2023-11-22T06:50:24;17.17;;;10.38;;
49123;SDS011;48506;48.202;16.274;2023-11-22T06:52:52;14.20;;;9.95;;
49123;SDS011;48506;48.202;16.274;2023-11-22T06:55:18;19.27;;;12.27;;
49123;SDS011;48506;48.202;16.274;2023-11-22T06:57:45;15.25;;;10.77;;
49123;SDS011;48506;48.202;16.274;2023-11-22T07:00:11;17.17;;;11.25;;
49123;SDS011;48506;48.202;16.274;2023-11-22T07:02:42;16.40;;;10.75;;
49123;SDS011;48506;48.202;16.274;2023-11-22T07:05:08;21.05;;;12.10;;
49123;SDS011;48506;48.202;16.274;2023-11-22T07:07:37;16.48;;;11.63;;
49123;SDS011;48506;48.202;16.274;2023-11-22T07:10:04;18.98;;;11.63;;
49123;SDS011;48506;48.202;16.274;2023-11-22T07:12:31;20.42;;;11.40;;
49123;SDS011;48506;48.202;16.274;2023-11-22T07:14:59;18.30;;;11.40;;
49123;SDS011;48506;48.202;16.274;2023-11-22T07:17:26;15.95;;;10.90;;
49123;SDS011;48506;48.202;16.274;2023-11-22T07:19:54;17.00;;;10.70;;
49123;SDS011;48506;48.202;16.274;2023-11-22T07:22:20;18.38;;;10.55;;
49123;SDS011;48506;48.202;16.274;2023-11-22T07:24:48;15.73;;;9.65;;
49123;SDS011;48506;48.202;16.274;2023-11-22T07:27:18;15.32;;;9.68;;
49123;SDS011;48506;48.202;16.274;2023-11-22T07:29:44;14.48;;;10.02;;
49123;SDS011;48506;48.202;16.274;2023-11-22T07:32:11;15.20;;;10.20;;
49123;SDS011;48506;48.202;16.274;2023-11-22T07:34:38;18.85;;;10.90;;
49123;SDS011;48506;48.202;16.274;2023-11-22T07:37:06;16.45;;;10.10;;
49123;SDS011;48506;48.202;16.274;2023-11-22T07:39:36;15.80;;;10.55;;
49123;SDS011;48506;48.202;16.274;2023-11-22T07:44:33;11.35;;;7.43;;
49123;SDS011;48506;48.202;16.274;2023-11-22T07:47:02;14.77;;;10.65;;
49123;SDS011;48506;48.202;16.274;2023-11-22T07:49:29;17.35;;;9.73;;
49123;SDS011;48506;48.202;16.274;2023-11-22T07:51:56;14.88;;;10.30;;
49123;SDS011;48506;48.202;16.274;2023-11-22T07:54:22;15.27;;;10.65;;
49123;SDS011;48506;48.202;16.274;2023-11-22T07:56:51;20.15;;;11.82;;
49123;SDS011;48506;48.202;16.274;2023-11-22T07:59:18;16.17;;;9.60;;
49123;SDS011;48506;48.202;16.274;2023-11-22T08:01:45;19.88;;;13.05;;
49123;SDS011;48506;48.202;16.274;2023-11-22T08:04:13;16.75;;;11.13;;
49123;SDS011;48506;48.202;16.274;2023-11-22T08:06:41;20.45;;;13.13;;
49123;SDS011;48506;48.202;16.274;2023-11-22T08:09:07;22.80;;;13.48;;
49123;SDS011;48506;48.202;16.274;2023-11-22T08:11:35;55.03;;;26.73;;
49123;SDS011;48506;48.202;16.274;2023-11-22T08:14:02;15.63;;;10.48;;
49123;SDS011;48506;48.202;16.274;2023-11-22T08:16:29;17.25;;;11.13;;
49123;SDS011;48506;48.202;16.274;2023-11-22T08:18:55;18.02;;;11.25;;
49123;SDS011;48506;48.202;16.274;2023-11-22T08:21:22;18.70;;;11.85;;
49123;SDS011;48506;48.202;16.274;2023-11-22T08:23:49;17.02;;;10.93;;
49123;SDS011;48506;48.202;16.274;2023-11-22T08:26:15;18.55;;;11.38;;
49123;SDS011;48506;48.202;16.274;2023-11-22T08:28:42;15.90;;;10.95;;
49123;SDS011;48506;48.202;16.274;2023-11-22T08:31:10;15.23;;;10.77;;
49123;SDS011;48506;48.202;16.274;2023-11-22T08:33:39;17.20;;;10.65;;
49123;SDS011;48506;48.202;16.274;2023-11-22T08:36:06;15.77;;;10.98;;
49123;SDS011;48506;48.202;16.274;2023-11-22T08:38:35;16.15;;;10.65;;
49123;SDS011;48506;48.202;16.274;2023-11-22T08:41:02;15.45;;;10.00;;
49123;SDS011;48506;48.202;16.274;2023-11-22T08:43:31;11.85;;;8.10;;
49123;SDS011;48506;48.202;16.274;2023-11-22T08:45:59;14.55;;;9.60;;
49123;SDS011;48506;48.202;16.274;2023-11-22T08:48:30;15.40;;;9.80;;
49123;SDS011;48506;48.202;16.274;2023-11-22T08:50:56;18.20;;;10.57;;
49123;SDS011;48506;48.202;16.274;2023-11-22T08:53:22;15.13;;;9.95;;
49123;SDS011;48506;48.202;16.274;2023-11-22T08:55:48;12.38;;;8.90;;
49123;SDS011;48506;48.202;16.274;2023-11-22T08:58:14;11.63;;;8.88;;
49123;SDS011;48506;48.202;16.274;2023-11-22T09:00:41;13.65;;;9.35;;
49123;SDS011;48506;48.202;16.274;2023-11-22T09:03:08;14.02;;;10.02;;
49123;SDS011;48506;48.202;16.274;2023-11-22T09:05:41;15.32;;;9.57;;
49123;SDS011;48506;48.202;16.274;2023-11-22T09:08:08;13.10;;;8.93;;
49123;SDS011;48506;48.202;16.274;2023-11-22T09:10:40;15.48;;;9.73;;
49123;SDS011;48506;48.202;16.274;2023-11-22T09:13:09;12.73;;;8.68;;
49123;SDS011;48506;48.202;16.274;2023-11-22T09:15:36;11.82;;;8.68;;
49123;SDS011;48506;48.202;16.274;2023-11-22T09:18:04;13.13;;;8.60;;
49123;SDS011;48506;48.202;16.274;2023-11-22T09:20:31;14.23;;;9.77;;
49123;SDS011;48506;48.202;16.274;2023-11-22T09:22:57;12.30;;;8.77;;
49123;SDS011;48506;48.202;16.274;2023-11-22T09:25:24;12.93;;;8.65;;
49123;SDS011;48506;48.202;16.274;2023-11-22T09:27:54;11.73;;;7.87;;
49123;SDS011;48506;48.202;16.274;2023-11-22T09:30:25;11.05;;;7.88;;
49123;SDS011;48506;48.202;16.274;2023-11-22T09:33:09;10.48;;;7.43;;
49123;SDS011;48506;48.202;16.274;2023-11-22T09:35:40;11.30;;;7.97;;
49123;SDS011;48506;48.202;16.274;2023-11-22T09:38:09;9.18;;;7.15;;
49123;SDS011;48506;48.202;16.274;2023-11-22T09:40:41;10.90;;;8.43;;
49123;SDS011;48506;48.202;16.274;2023-11-22T09:43:09;11.00;;;8.57;;
49123;SDS011;48506;48.202;16.274;2023-11-22T09:45:35;10.52;;;7.70;;
49123;SDS011;48506;48.202;16.274;2023-11-22T09:48:04;10.80;;;7.93;;
49123;SDS011;48506;48.202;16.274;2023-11-22T09:53:45;9.88;;;7.15;;
49123;SDS011;48506;48.202;16.274;2023-11-22T09:56:07;9.52;;;7.68;;
49123;SDS011;48506;48.202;16.274;2023-11-22T09:58:35;10.60;;;7.70;;
49123;SDS011;48506;48.202;16.274;2023-11-22T10:03:33;8.25;;;5.85;;
49123;SDS011;48506;48.202;16.274;2023-11-22T10:05:59;9.82;;;7.25;;
49123;SDS011;48506;48.202;16.274;2023-11-22T10:08:26;11.05;;;7.97;;
49123;SDS011;48506;48.202;16.274;2023-11-22T10:10:58;13.98;;;7.97;;
49123;SDS011;48506;48.202;16.274;2023-11-22T10:13:24;11.63;;;7.70;;
49123;SDS011;48506;48.202;16.274;2023-11-22T10:15:52;11.95;;;8.48;;
49123;SDS011;48506;48.202;16.274;2023-11-22T10:18:19;12.60;;;8.20;;
49123;SDS011;48506;48.202;16.274;2023-11-22T10:20:49;9.63;;;7.25;;
49123;SDS011;48506;48.202;16.274;2023-11-22T10:23:17;9.32;;;7.15;;
49123;SDS011;48506;48.202;16.274;2023-11-22T10:25:48;10.40;;;7.60;;
49123;SDS011;48506;48.202;16.274;2023-11-22T10:28:17;12.20;;;8.13;;
49123;SDS011;48506;48.202;16.274;2023-11-22T10:30:47;10.73;;;8.10;;
49123;SDS011;48506;48.202;16.274;2023-11-22T10:33:15;10.60;;;7.38;;
49123;SDS011;48506;48.202;16.274;2023-11-22T10:35:45;10.63;;;8.20;;
49123;SDS011;48506;48.202;16.274;2023-11-22T10:38:15;11.50;;;8.30;;
49123;SDS011;48506;48.202;16.274;2023-11-22T10:40:43;11.07;;;8.65;;
49123;SDS011;48506;48.202;16.274;2023-11-22T10:43:12;15.88;;;8.82;;
49123;SDS011;48506;48.202;16.274;2023-11-22T10:45:42;11.85;;;8.43;;
49123;SDS011;48506;48.202;16.274;2023-11-22T10:48:17;12.00;;;8.85;;
49123;SDS011;48506;48.202;16.274;2023-11-22T10:50:44;11.57;;;8.48;;
49123;SDS011;48506;48.202;16.274;2023-11-22T10:53:11;12.50;;;8.77;;
49123;SDS011;48506;48.202;16.274;2023-11-22T10:55:46;14.93;;;9.85;;
49123;SDS011;48506;48.202;16.274;2023-11-22T10:58:14;14.38;;;9.75;;
49123;SDS011;48506;48.202;16.274;2023-11-22T11:00:41;15.00;;;9.70;;
49123;SDS011;48506;48.202;16.274;2023-11-22T11:03:17;18.23;;;10.02;;
49123;SDS011;48506;48.202;16.274;2023-11-22T11:05:52;17.35;;;11.43;;
49123;SDS011;48506;48.202;16.274;2023-11-22T11:08:30;14.23;;;9.90;;
49123;SDS011;48506;48.202;16.274;2023-11-22T11:10:57;18.05;;;11.32;;
49123;SDS011;48506;48.202;16.274;2023-11-22T11:13:25;14.52;;;10.60;;
49123;SDS011;48506;48.202;16.274;2023-11-22T11:15:52;14.90;;;10.45;;
49123;SDS011;48506;48.202;16.274;2023-11-22T11:18:19;13.63;;;10.98;;
49123;SDS011;48506;48.202;16.274;2023-11-22T11:20:52;13.70;;;10.07;;
49123;SDS011;48506;48.202;16.274;2023-11-22T11:23:27;14.88;;;10.25;;
49123;SDS011;48506;48.202;16.274;2023-11-22T11:25:54;15.23;;;10.52;;
49123;SDS011;48506;48.202;16.274;2023-11-22T11:28:25;14.65;;;10.30;;
49123;SDS011;48506;48.202;16.274;2023-11-22T11:30:52;9.68;;;6.88;;
49123;SDS011;48506;48.202;16.274;2023-11-22T11:33:36;11.00;;;8.27;;
49123;SDS011;48506;48.202;16.274;2023-11-22T11:36:21;13.25;;;9.75;;
49123;SDS011;48506;48.202;16.274;2023-11-22T11:38:52;13.90;;;10.15;;
49123;SDS011;48506;48.202;16.274;2023-11-22T11:41:23;12.48;;;8.63;;
49123;SDS011;48506;48.202;16.274;2023-11-22T11:43:55;13.32;;;9.00;;
49123;SDS011;48506;48.202;16.274;2023-11-22T11:46:23;13.85;;;8.80;;
49123;SDS011;48506;48.202;16.274;2023-11-22T11:48:51;15.07;;;10.13;;
49123;SDS011;48506;48.202;16.274;2023-11-22T11:51:19;15.20;;;10.15;;
49123;SDS011;48506;48.202;16.274;2023-11-22T11:53:47;15.77;;;10.90;;
49123;SDS011;48506;48.202;16.274;2023-11-22T11:56:14;14.18;;;10.05;;
49123;SDS011;48506;48.202;16.274;2023-11-22T11:58:45;11.43;;;9.25;;
49123;SDS011;48506;48.202;16.274;2023-11-22T12:01:13;14.50;;;9.60;;
49123;SDS011;48506;48.202;16.274;2023-11-22T12:03:51;14.98;;;9.45;;
49123;SDS011;48506;48.202;16.274;2023-11-22T12:06:17;14.20;;;10.30;;
49123;SDS011;48506;48.202;16.274;2023-11-22T12:08:44;16.23;;;10.70;;
49123;SDS011;48506;48.202;16.274;2023-11-22T12:11:13;15.88;;;10.55;;
49123;SDS011;48506;48.202;16.274;2023-11-22T12:13:41;15.20;;;10.45;;
49123;SDS011;48506;48.202;16.274;2023-11-22T12:16:15;13.88;;;9.48;;
49123;SDS011;48506;48.202;16.274;2023-11-22T12:18:48;14.65;;;10.27;;
49123;SDS011;48506;48.202;16.274;2023-11-22T12:21:15;12.85;;;8.98;;
49123;SDS011;48506;48.202;16.274;2023-11-22T12:23:43;16.02;;;10.98;;
49123;SDS011;48506;48.202;16.274;2023-11-22T12:26:12;15.05;;;10.00;;
49123;SDS011;48506;48.202;16.274;2023-11-22T12:28:40;15.02;;;9.65;;
49123;SDS011;48506;48.202;16.274;2023-11-22T12:31:08;15.82;;;9.70;;
49123;SDS011;48506;48.202;16.274;2023-11-22T12:33:36;13.52;;;9.57;;
49123;SDS011;48506;48.202;16.274;2023-11-22T12:36:03;14.95;;;10.60;;
49123;SDS011;48506;48.202;16.274;2023-11-22T12:38:29;14.45;;;11.50;;
49123;SDS011;48506;48.202;16.274;2023-11-22T12:40:58;17.92;;;11.48;;
49123;SDS011;48506;48.202;16.274;2023-11-22T12:43:25;18.38;;;11.65;;
49123;SDS011;48506;48.202;16.274;2023-11-22T12:46:00;17.85;;;12.38;;
49123;SDS011;48506;48.202;16.274;2023-11-22T12:48:39;20.33;;;12.00;;
49123;SDS011;48506;48.202;16.274;2023-11-22T12:51:14;18.25;;;12.25;;
49123;SDS011;48506;48.202;16.274;2023-11-22T12:53:51;20.05;;;12.27;;
49123;SDS011;48506;48.202;16.274;2023-11-22T12:56:18;15.68;;;10.80;;
49123;SDS011;48506;48.202;16.274;2023-11-22T12:58:44;16.42;;;10.68;;
49123;SDS011;48506;48.202;16.274;2023-11-22T13:01:09;17.10;;;11.35;;
49123;SDS011;48506;48.202;16.274;2023-11-22T13:03:35;18.15;;;12.20;;
49123;SDS011;48506;48.202;16.274;2023-11-22T13:06:02;15.82;;;11.05;;
49123;SDS011;48506;48.202;16.274;2023-11-22T13:08:29;18.73;;;11.93;;
49123;SDS011;48506;48.202;16.274;2023-11-22T13:10:56;17.63;;;11.48;;
49123;SDS011;48506;48.202;16.274;2023-11-22T13:13:24;16.20;;;12.10;;
49123;SDS011;48506;48.202;16.274;2023-11-22T13:15:52;17.63;;;12.13;;
49123;SDS011;48506;48.202;16.274;2023-11-22T13:18:18;19.48;;;12.65;;
49123;SDS011;48506;48.202;16.274;2023-11-22T13:20:45;19.65;;;12.95;;
49123;SDS011;48506;48.202;16.274;2023-11-22T13:23:12;18.70;;;12.50;;
49123;SDS011;48506;48.202;16.274;2023-11-22T13:25:39;19.90;;;13.93;;
49123;SDS011;48506;48.202;16.274;2023-11-22T13:28:09;18.48;;;12.35;;
49123;SDS011;48506;48.202;16.274;2023-11-22T13:30:36;16.80;;;12.38;;
49123;SDS011;48506;48.202;16.274;2023-11-22T13:33:02;17.73;;;12.70;;
49123;SDS011;48506;48.202;16.274;2023-11-22T13:35:29;16.88;;;12.10;;
49123;SDS011;48506;48.202;16.274;2023-11-22T13:38:02;17.15;;;13.23;;
49123;SDS011;48506;48.202;16.274;2023-11-22T13:40:35;18.15;;;12.40;;
49123;SDS011;48506;48.202;16.274;2023-11-22T13:43:04;15.60;;;11.68;;
49123;SDS011;48506;48.202;16.274;2023-11-22T13:45:30;17.58;;;12.25;;
49123;SDS011;48506;48.202;16.274;2023-11-22T13:47:56;21.35;;;13.38;;
49123;SDS011;48506;48.202;16.274;2023-11-22T13:50:25;17.20;;;9.80;;
49123;SDS011;48506;48.202;16.274;2023-11-22T13:52:53;19.65;;;12.55;;
49123;SDS011;48506;48.202;16.274;2023-11-22T13:55:20;17.60;;;12.63;;
49123;SDS011;48506;48.202;16.274;2023-11-22T13:57:51;19.30;;;11.95;;
49123;SDS011;48506;48.202;16.274;2023-11-22T14:00:22;20.63;;;11.82;;
49123;SDS011;48506;48.202;16.274;2023-11-22T14:02:52;17.27;;;12.13;;
49123;SDS011;48506;48.202;16.274;2023-11-22T14:05:25;16.48;;;11.73;;
49123;SDS011;48506;48.202;16.274;2023-11-22T14:07:53;17.65;;;12.27;;
49123;SDS011;48506;48.202;16.274;2023-11-22T14:10:20;19.02;;;12.82;;
49123;SDS011;48506;48.202;16.274;2023-11-22T14:12:48;20.17;;;12.60;;
49123;SDS011;48506;48.202;16.274;2023-11-22T14:15:15;20.75;;;13.27;;
49123;SDS011;48506;48.202;16.274;2023-11-22T14:17:41;17.88;;;12.93;;
49123;SDS011;48506;48.202;16.274;2023-11-22T14:20:11;20.35;;;12.98;;
49123;SDS011;48506;48.202;16.274;2023-11-22T14:25:06;19.35;;;12.73;;
49123;SDS011;48506;48.202;16.274;2023-11-22T14:27:39;20.05;;;12.35;;
49123;SDS011;48506;48.202;16.274;2023-11-22T14:30:06;18.50;;;12.20;;
49123;SDS011;48506;48.202;16.274;2023-11-22T14:32:34;21.00;;;12.90;;